Time;durP1;ratioP1;P1;durP2;ratioP2;P2;SDS_P1;SDS_P2;PMS_P1;PMS_P2;Temp;Humidity;BMP_temperature;BMP_pressure;BME280_temperature;BME280_humidity;BME280_pressure;Samples;Min_cycle;Max_cycle;Signal;HPM_P1;HPM_P2
2021/12/23 00:02:04;;;;;;;45.17;20.35;;;;;;;12.47;50.19;100078.22;4430258;32;20104;-68
2021/12/23 00:04:30;;;;;;;42.13;18.90;;;;;;;12.59;50.03;100066.03;4428805;32;20450;-67
2021/12/23 00:06:55;;;;;;;40.60;19.55;;;;;;;12.90;49.28;100072.31;4430488;32;20195;-67
2021/12/23 00:09:25;;;;;;;40.42;18.33;;;;;;;12.93;49.02;100066.53;4431859;32;20374;-67
2021/12/23 00:11:51;;;;;;;40.60;18.62;;;;;;;12.85;48.94;100068.06;4429313;32;20025;-67
2021/12/23 00:14:16;;;;;;;43.42;18.83;;;;;;;12.99;48.59;100053.38;4431259;32;20029;-67
2021/12/23 00:17:06;;;;;;;40.50;18.37;;;;;;;13.05;48.46;100062.00;4426299;32;20069;-67
2021/12/23 00:24:50;;;;;;;;;;;;;;;12.76;49.18;100058.84;4428803;32;20451;-66
2021/12/23 00:27:16;;;;;;;40.22;18.17;;;;;;;13.29;48.12;100043.13;4431026;32;19956;-68
2021/12/23 00:29:41;;;;;;;49.63;19.98;;;;;;;12.94;48.85;100039.84;4429168;32;20072;-68
2021/12/23 00:32:08;;;;;;;45.25;19.65;;;;;;;13.16;48.48;100039.72;4427555;32;20022;-68
2021/12/23 00:34:36;;;;;;;44.33;20.25;;;;;;;13.50;47.79;100039.31;4431134;32;20065;-68
2021/12/23 00:37:05;;;;;;;49.70;21.45;;;;;;;13.25;48.52;100034.00;4426970;32;20092;-68
2021/12/23 00:39:31;;;;;;;48.78;21.35;;;;;;;13.25;48.22;100043.28;4428477;32;20046;-68
2021/12/23 00:42:05;;;;;;;50.78;21.90;;;;;;;13.27;48.38;100029.47;4425472;32;20060;-68
2021/12/23 00:44:33;;;;;;;44.53;20.20;;;;;;;13.23;48.16;100026.00;4430418;32;20030;-68
2021/12/23 00:46:58;;;;;;;43.38;20.77;;;;;;;13.28;48.30;100027.41;4429219;32;20085;-68
2021/12/23 00:49:24;;;;;;;45.25;19.48;;;;;;;12.98;49.02;100043.28;4431111;32;20090;-68
2021/12/23 00:51:50;;;;;;;48.13;20.52;;;;;;;13.09;48.80;100023.06;4428327;32;20041;-67
2021/12/23 00:54:15;;;;;;;46.97;20.42;;;;;;;12.71;50.24;100017.91;4431925;32;20401;-67
2021/12/23 00:56:47;;;;;;;47.45;20.95;;;;;;;12.82;50.49;100018.19;4429632;32;20096;-67
2021/12/23 00:59:13;;;;;;;50.25;21.52;;;;;;;12.74;50.84;100016.97;4428074;32;20073;-67
2021/12/23 01:01:39;;;;;;;54.15;22.83;;;;;;;12.47;51.47;100008.47;4429108;32;20041;-66
2021/12/23 01:04:05;;;;;;;50.70;22.15;;;;;;;12.00;52.57;100008.09;4431300;32;20060;-66
2021/12/23 01:06:32;;;;;;;51.47;22.73;;;;;;;12.15;52.54;100011.09;4427985;32;20089;-66
2021/12/23 01:08:59;;;;;;;52.70;22.58;;;;;;;12.18;52.64;100002.47;4431176;32;20081;-66
2021/12/23 01:11:25;;;;;;;48.85;23.00;;;;;;;12.18;52.74;99998.88;4425850;32;20073;-66
2021/12/23 01:19:23;;;;;;;;;;;;;;;12.14;52.90;100004.66;4431505;32;20029;-66
2021/12/23 01:21:50;;;;;;;47.65;22.40;;;;;;;12.55;51.92;99989.19;4426515;32;19979;-67
2021/12/23 01:24:16;;;;;;;50.10;22.52;;;;;;;12.04;53.15;100001.03;4433031;32;20312;-68
2021/12/23 01:26:42;;;;;;;55.53;23.58;;;;;;;11.94;53.45;99988.16;4430319;32;20075;-67
2021/12/23 01:29:08;;;;;;;51.28;23.75;;;;;;;12.24;52.73;99997.78;4426278;32;20129;-68
2021/12/23 01:31:36;;;;;;;55.58;24.02;;;;;;;12.36;52.59;99984.78;4426952;32;20088;-67
2021/12/23 01:34:03;;;;;;;49.38;23.27;;;;;;;12.36;52.58;99987.63;4423030;32;20078;-69
2021/12/23 01:36:29;;;;;;;55.05;23.83;;;;;;;12.42;52.50;99992.16;4420253;32;20103;-67
2021/12/23 01:38:55;;;;;;;50.10;24.00;;;;;;;12.43;52.45;99968.34;4418734;32;20653;-68
2021/12/23 01:41:23;;;;;;;55.97;24.40;;;;;;;12.67;51.48;99969.25;4418134;32;20030;-67
2021/12/23 01:43:50;;;;;;;55.42;24.10;;;;;;;13.05;51.42;99968.78;4419792;32;20055;-68
2021/12/23 01:46:17;;;;;;;50.55;23.50;;;;;;;13.00;51.52;99952.47;4418210;32;20433;-68
2021/12/23 01:48:43;;;;;;;50.00;24.15;;;;;;;12.90;51.37;99959.34;4418805;32;20072;-68
2021/12/23 01:51:09;;;;;;;50.12;23.90;;;;;;;12.90;51.87;99953.72;4416715;32;20112;-68
2021/12/23 01:53:35;;;;;;;60.00;25.17;;;;;;;12.70;52.14;99973.97;4417883;32;20074;-68
2021/12/23 01:56:01;;;;;;;60.80;25.25;;;;;;;12.69;52.10;99952.66;4420222;32;20324;-68
2021/12/23 01:58:27;;;;;;;50.35;23.42;;;;;;;12.80;52.06;99947.31;4420847;32;20106;-68
2021/12/23 02:00:53;;;;;;;56.50;24.15;;;;;;;12.92;51.93;99942.72;4415636;32;20030;-69
2021/12/23 02:03:19;;;;;;;55.53;26.02;;;;;;;12.91;51.91;99941.94;4418447;32;20467;-68
2021/12/23 02:05:45;;;;;;;58.63;25.05;;;;;;;12.75;52.34;99942.28;4418516;32;20181;-69
2021/12/23 02:08:12;;;;;;;62.38;26.65;;;;;;;12.93;52.07;99945.09;4419297;32;20068;-68
2021/12/23 02:10:41;;;;;;;54.92;25.52;;;;;;;12.88;51.44;99940.06;4416294;32;20038;-69
2021/12/23 02:13:08;;;;;;;52.53;25.08;;;;;;;13.32;51.04;99923.50;4416591;32;20030;-70
2021/12/23 02:15:33;;;;;;;48.97;24.15;;;;;;;13.32;51.05;99918.63;4417353;32;20130;-69
2021/12/23 02:18:00;;;;;;;51.40;24.55;;;;;;;13.21;50.91;99917.56;4416923;32;20442;-69
2021/12/23 02:20:31;;;;;;;53.35;24.52;;;;;;;13.37;50.90;99922.84;4416457;32;20046;-69
2021/12/23 02:22:59;;;;;;;60.35;24.83;;;;;;;13.86;49.81;99907.03;4417219;32;20077;-69
2021/12/23 02:25:25;;;;;;;47.67;23.75;;;;;;;13.53;50.17;99903.44;4416835;32;20101;-69
2021/12/23 02:27:53;;;;;;;47.22;23.83;;;;;;;13.68;50.08;99914.84;4416562;32;20468;-69
2021/12/23 02:30:23;;;;;;;51.13;23.87;;;;;;;13.84;49.54;99909.56;4417246;32;20111;-69
2021/12/23 02:32:49;;;;;;;52.00;23.33;;;;;;;13.64;50.33;99909.37;4419452;32;20089;-69
2021/12/23 02:35:17;;;;;;;52.25;24.30;;;;;;;13.54;50.48;99902.22;4417258;32;20030;-69
2021/12/23 02:37:44;;;;;;;53.30;24.12;;;;;;;13.88;49.85;99898.06;4416601;32;20073;-69
2021/12/23 02:40:21;;;;;;;51.33;23.15;;;;;;;13.62;50.13;99897.75;4417832;32;20038;-69
2021/12/23 02:42:47;;;;;;;48.72;23.08;;;;;;;13.81;49.86;99890.72;4417285;32;20072;-68
2021/12/23 02:45:13;;;;;;;49.65;23.70;;;;;;;13.55;50.00;99911.44;4415703;32;20055;-68
2021/12/23 02:47:39;;;;;;;56.00;23.83;;;;;;;13.32;50.48;99898.06;4420066;32;20469;-68
2021/12/23 02:50:05;;;;;;;58.05;24.90;;;;;;;13.42;50.70;99894.72;4415613;32;20102;-68
2021/12/23 02:52:32;;;;;;;59.38;24.80;;;;;;;13.54;50.52;99902.22;4416048;32;20144;-68
2021/12/23 02:54:58;;;;;;;53.42;25.05;;;;;;;13.18;51.38;99890.28;4422995;32;20029;-68
2021/12/23 02:57:25;;;;;;;55.33;25.33;;;;;;;13.37;50.71;99889.72;4418610;32;20086;-68
2021/12/23 02:59:51;;;;;;;52.83;24.27;;;;;;;13.37;50.64;99886.87;4414247;32;20076;-68
2021/12/23 03:02:17;;;;;;;54.15;23.83;;;;;;;13.57;50.41;99884.25;4417366;32;20102;-69
2021/12/23 03:04:43;;;;;;;57.40;25.17;;;;;;;13.66;49.96;99878.56;4416642;32;20038;-69
2021/12/23 03:07:10;;;;;;;55.92;23.38;;;;;;;13.72;49.81;99878.69;4419514;32;20537;-69
2021/12/23 03:09:35;;;;;;;50.92;24.45;;;;;;;13.49;50.38;99887.94;4409785;32;20033;-69
2021/12/23 03:12:01;;;;;;;53.60;24.05;;;;;;;13.73;50.01;99878.22;4414284;32;20135;-69
2021/12/23 03:14:28;;;;;;;52.50;24.70;;;;;;;13.81;49.71;99881.47;4420101;32;20037;-69
2021/12/23 03:16:53;;;;;;;50.00;23.98;;;;;;;13.60;49.92;99876.88;4415208;32;20025;-69
2021/12/23 03:19:19;;;;;;;53.13;24.85;;;;;;;13.32;50.34;99886.78;4416307;32;20467;-69
2021/12/23 03:21:45;;;;;;;58.03;25.12;;;;;;;13.38;50.24;99877.16;4415331;32;20138;-69
2021/12/23 03:24:15;;;;;;;50.72;24.17;;;;;;;13.04;51.20;99874.78;4420069;32;20042;-69
2021/12/23 03:26:41;;;;;;;57.33;25.08;;;;;;;13.59;50.37;99864.00;4416214;32;20030;-69
2021/12/23 03:29:11;;;;;;;49.10;24.25;;;;;;;13.37;50.70;99874.78;4416015;32;20100;-69
2021/12/23 03:31:38;;;;;;;55.83;25.37;;;;;;;13.48;50.46;99861.72;4414901;32;20034;-69
2021/12/23 03:34:04;;;;;;;57.83;25.30;;;;;;;13.63;50.47;99864.63;4418074;32;20461;-69
2021/12/23 03:36:31;;;;;;;57.50;25.30;;;;;;;13.53;50.61;99868.78;4418450;32;20041;-69
2021/12/23 03:38:56;;;;;;;57.05;26.35;;;;;;;13.42;50.88;99868.50;4418841;32;20033;-69
2021/12/23 03:41:22;;;;;;;60.88;25.83;;;;;;;13.78;50.12;99851.31;4414822;32;20075;-69
2021/12/23 03:43:48;;;;;;;54.05;25.50;;;;;;;13.89;49.69;99858.00;4418619;32;20145;-69
2021/12/23 03:46:14;;;;;;;57.08;24.75;;;;;;;13.74;49.97;99845.84;4415123;32;20422;-68
2021/12/23 03:48:40;;;;;;;55.65;26.92;;;;;;;13.73;49.79;99830.16;4418195;32;20046;-68
2021/12/23 03:51:06;;;;;;;58.05;25.60;;;;;;;13.73;50.05;99838.63;4417680;32;20099;-68
2021/12/23 03:53:31;;;;;;;56.80;25.83;;;;;;;13.78;49.83;99846.44;4416413;32;20489;-68
2021/12/23 03:55:57;;;;;;;62.35;27.08;;;;;;;13.73;49.96;99852.78;4415361;32;21174;-68
2021/12/23 03:58:23;;;;;;;65.35;26.92;;;;;;;13.58;50.32;99854.75;4416249;32;20816;-68
2021/12/23 04:00:50;;;;;;;58.95;26.70;;;;;;;13.45;50.57;99856.25;4413497;32;20085;-68
2021/12/23 04:03:15;;;;;;;62.97;27.50;;;;;;;13.66;50.36;99850.28;4415211;32;20048;-68
2021/12/23 04:05:42;;;;;;;63.38;27.75;;;;;;;13.57;50.41;99856.00;4419811;32;20337;-68
2021/12/23 04:08:07;;;;;;;59.90;26.05;;;;;;;13.57;50.52;99847.50;4418052;32;20074;-68
2021/12/23 04:10:34;;;;;;;61.25;26.50;;;;;;;13.81;50.08;99842.66;4418026;32;20034;-68
2021/12/23 04:13:00;;;;;;;57.92;27.08;;;;;;;13.92;49.77;99828.75;4415636;32;20030;-68
2021/12/23 04:15:25;;;;;;;60.55;26.77;;;;;;;14.05;49.30;99826.44;4419957;32;20081;-68
2021/12/23 04:17:51;;;;;;;53.58;25.20;;;;;;;14.07;49.24;99823.91;4418402;32;20068;-68
2021/12/23 04:20:21;;;;;;;59.40;27.02;;;;;;;14.39;48.88;99821.47;4416159;32;20612;-68
2021/12/23 04:22:51;;;;;;;61.58;26.20;;;;;;;14.74;48.10;99816.66;4418385;32;20754;-67
2021/12/23 04:25:19;;;;;;;56.20;26.85;;;;;;;14.42;48.89;99809.16;4419714;32;20739;-67
2021/12/23 04:27:46;;;;;;;60.83;26.45;;;;;;;14.59;48.36;99813.06;4414862;32;20038;-67
2021/12/23 04:30:12;;;;;;;60.92;27.40;;;;;;;14.83;47.91;99808.84;4417424;32;20068;-67
2021/12/23 04:32:39;;;;;;;60.03;26.92;;;;;;;14.92;47.76;99807.97;4415988;32;20105;-67
2021/12/23 04:35:05;;;;;;;64.35;27.77;;;;;;;15.00;47.43;99811.97;4417830;32;20060;-67
2021/12/23 04:37:31;;;;;;;59.10;26.40;;;;;;;15.09;47.45;99809.00;4413317;32;20073;-67
2021/12/23 04:39:56;;;;;;;62.58;27.48;;;;;;;15.10;47.08;99797.16;4413204;32;20057;-67
2021/12/23 04:42:22;;;;;;;59.30;27.13;;;;;;;15.24;46.68;99787.06;4415046;32;20057;-67
2021/12/23 04:44:48;;;;;;;64.25;27.05;;;;;;;15.18;46.57;99783.38;4415778;32;20135;-67
2021/12/23 04:47:13;;;;;;;66.68;27.73;;;;;;;15.29;46.80;99775.81;4416107;32;20087;-67
2021/12/23 04:49:39;;;;;;;64.40;27.52;;;;;;;15.33;46.47;99779.22;4415658;32;20077;-67
2021/12/23 04:52:05;;;;;;;58.95;26.58;;;;;;;15.21;46.95;99771.84;4418287;32;20049;-67
2021/12/23 04:54:31;;;;;;;59.33;27.67;;;;;;;15.22;47.00;99773.37;4417051;32;20030;-67
2021/12/23 04:56:57;;;;;;;64.85;28.27;;;;;;;15.04;47.57;99772.87;4417729;32;20066;-67
2021/12/23 04:59:22;;;;;;;66.12;28.55;;;;;;;15.02;47.66;99764.06;4417012;32;20078;-67
2021/12/23 05:01:50;;;;;;;63.97;27.15;;;;;;;14.75;48.00;99767.25;4417341;32;20078;-67
2021/12/23 05:04:16;;;;;;;70.37;28.10;;;;;;;15.10;47.40;99777.31;4416404;32;20022;-67
2021/12/23 05:06:42;;;;;;;69.35;28.08;;;;;;;14.93;48.04;99767.03;4415610;32;20623;-67
2021/12/23 05:09:08;;;;;;;60.53;27.62;;;;;;;14.72;48.22;99759.72;4415854;32;20417;-67
2021/12/23 05:11:34;;;;;;;62.22;26.87;;;;;;;14.52;48.70;99754.78;4419548;32;20025;-67
2021/12/23 05:13:59;;;;;;;62.33;27.83;;;;;;;14.70;48.21;99756.63;4418692;32;20073;-67
2021/12/23 05:16:25;;;;;;;58.60;25.77;;;;;;;14.72;48.15;99756.91;4420770;32;20056;-67
2021/12/23 05:18:51;;;;;;;64.47;29.12;;;;;;;14.69;48.20;99757.87;4418801;32;21113;-67
2021/12/23 05:21:17;;;;;;;66.57;28.17;;;;;;;14.90;47.67;99751.78;4418789;32;20169;-67
2021/12/23 05:23:42;;;;;;;61.03;27.42;;;;;;;14.90;47.92;99748.16;4419230;32;20113;-67
2021/12/23 05:26:09;;;;;;;66.20;27.87;;;;;;;14.44;48.94;99758.47;4416132;32;20141;-67
2021/12/23 05:28:35;;;;;;;67.47;29.27;;;;;;;14.91;48.20;99746.91;4418436;32;20052;-67
2021/12/23 05:31:02;;;;;;;62.05;28.25;;;;;;;15.08;47.55;99747.94;4417798;32;20045;-67
2021/12/23 05:33:27;;;;;;;62.55;26.87;;;;;;;15.06;47.84;99748.44;4418595;32;20402;-67
2021/12/23 05:35:55;;;;;;;62.15;28.02;;;;;;;12.70;47.32;99352.97;4416758;32;20038;-67
2021/12/23 05:38:21;;;;;;;58.58;27.98;;;;;;;15.46;46.92;99728.66;4418572;32;20074;-67
2021/12/23 05:40:49;;;;;;;61.90;27.58;;;;;;;15.50;46.86;99726.37;4415291;32;20060;-67
2021/12/23 05:43:15;;;;;;;60.25;25.98;;;;;;;15.29;46.91;99741.81;4418708;32;20064;-67
2021/12/23 05:45:40;;;;;;;59.92;27.17;;;;;;;15.42;46.94;99733.78;4420224;32;20030;-67
2021/12/23 05:48:06;;;;;;;61.25;26.98;;;;;;;15.48;46.66;99737.44;4418003;32;20034;-67
2021/12/23 05:50:32;;;;;;;56.45;26.25;;;;;;;15.21;46.89;99743.50;4417953;32;20069;-67
2021/12/23 05:52:58;;;;;;;57.60;25.60;;;;;;;15.25;47.06;99729.13;4419608;32;20122;-67
2021/12/23 05:55:24;;;;;;;62.53;27.95;;;;;;;15.38;46.98;99730.38;4419867;32;20030;-67
2021/12/23 05:57:50;;;;;;;58.90;26.35;;;;;;;15.50;46.60;99719.94;4418059;32;20086;-67
2021/12/23 06:00:20;;;;;;;54.65;25.23;;;;;;;15.48;46.75;99725.31;4420074;32;20487;-67
2021/12/23 06:02:47;;;;;;;61.17;26.98;;;;;;;15.76;46.54;99720.75;4417540;32;20791;-67
2021/12/23 06:05:14;;;;;;;59.03;27.45;;;;;;;15.44;47.11;99727.59;4419489;32;20046;-67
2021/12/23 06:07:40;;;;;;;60.53;26.95;;;;;;;15.70;46.75;99711.41;4421985;32;20099;-67
2021/12/23 06:10:06;;;;;;;60.63;26.85;;;;;;;15.41;47.18;99722.91;4419679;32;20073;-67
2021/12/23 06:12:33;;;;;;;55.60;27.08;;;;;;;15.53;46.55;99724.63;4417587;32;20203;-67
2021/12/23 06:14:58;;;;;;;65.50;27.73;;;;;;;15.38;47.12;99713.38;4419989;32;20302;-67
2021/12/23 06:17:24;;;;;;;58.28;26.33;;;;;;;15.50;46.78;99714.28;4419968;32;20096;-67
2021/12/23 06:19:50;;;;;;;55.05;25.58;;;;;;;15.60;46.54;99727.03;4418649;32;20087;-67
2021/12/23 06:22:18;;;;;;;57.17;26.33;;;;;;;15.63;46.44;99723.19;4416991;32;20104;-68
2021/12/23 06:24:45;;;;;;;55.55;26.30;;;;;;;15.74;46.45;99721.25;4415483;32;20100;-67
2021/12/23 06:27:11;;;;;;;57.17;24.48;;;;;;;15.53;47.04;99718.94;4415494;32;20155;-68
2021/12/23 06:29:37;;;;;;;55.70;25.88;;;;;;;15.25;47.77;99715.72;4417812;32;20483;-68
2021/12/23 06:32:04;;;;;;;59.78;26.77;;;;;;;15.13;47.58;99716.84;4418098;32;20030;-68
2021/12/23 06:34:29;;;;;;;59.00;26.17;;;;;;;15.51;47.29;99718.66;4417743;32;20073;-68
2021/12/23 06:36:55;;;;;;;59.30;28.10;;;;;;;15.36;47.22;99730.03;4414671;32;20904;-68
2021/12/23 06:39:21;;;;;;;56.90;26.05;;;;;;;15.38;47.33;99723.91;4416345;32;20084;-68
2021/12/23 06:41:48;;;;;;;59.97;26.33;;;;;;;15.19;47.77;99703.53;4416821;32;20108;-68
2021/12/23 06:44:13;;;;;;;61.10;27.42;;;;;;;14.98;48.35;99692.69;4420548;32;20789;-68
2021/12/23 06:46:39;;;;;;;58.33;26.92;;;;;;;14.57;49.43;99700.28;4419088;32;20100;-68
2021/12/23 06:49:05;;;;;;;63.53;28.05;;;;;;;14.83;48.27;99697.59;4417211;32;20060;-68
2021/12/23 06:51:30;;;;;;;67.47;29.52;;;;;;;14.82;48.90;99693.22;4416375;32;20037;-68
2021/12/23 06:53:59;;;;;;;58.75;26.02;;;;;;;15.27;48.00;99684.84;4416826;32;20517;-68
2021/12/23 06:56:25;;;;;;;56.08;26.42;;;;;;;15.41;47.62;99677.56;4419070;32;20034;-68
2021/12/23 06:58:52;;;;;;;57.92;27.65;;;;;;;15.45;47.32;99678.91;4418919;32;20581;-68
2021/12/23 07:01:20;;;;;;;61.72;27.48;;;;;;;15.63;46.79;99678.59;4416876;32;20053;-68
2021/12/23 07:06:32;;;;;;;62.28;27.92;;;;;;;15.57;47.05;99699.66;3981279;32;15025333;-68
2021/12/23 07:08:59;;;;;;;66.00;27.35;;;;;;;15.57;47.05;99699.66;4427467;32;20037;-68
2021/12/23 07:11:25;;;;;;;67.60;29.05;;;;;;;15.20;47.43;99699.44;4430703;32;20128;-68
2021/12/23 07:13:51;;;;;;;67.03;28.08;;;;;;;15.05;47.78;99697.91;4428221;32;20514;-68
2021/12/23 07:16:17;;;;;;;65.82;29.50;;;;;;;14.91;47.73;99705.19;4429485;32;20093;-68
2021/12/23 07:18:44;;;;;;;69.12;30.62;;;;;;;15.00;47.82;99696.56;4427307;32;20137;-68
2021/12/23 07:21:10;;;;;;;75.95;31.00;;;;;;;14.79;47.97;99685.72;4428140;32;20069;-68
2021/12/23 07:23:35;;;;;;;70.97;30.40;;;;;;;14.87;48.05;99684.00;4429928;32;20029;-68
2021/12/23 07:26:01;;;;;;;68.90;29.55;;;;;;;14.87;47.98;99670.63;4431444;32;20469;-68
2021/12/23 07:28:27;;;;;;;77.95;31.12;;;;;;;14.86;47.90;99674.75;4428941;32;20037;-68
2021/12/23 07:30:55;;;;;;;71.10;31.08;;;;;;;14.95;47.64;99671.00;4427186;32;20049;-68
2021/12/23 07:33:21;;;;;;;78.60;30.88;;;;;;;14.62;48.12;99667.69;4431408;32;20361;-68
2021/12/23 07:35:48;;;;;;;71.97;30.35;;;;;;;14.77;48.29;99674.09;4427629;32;20033;-68
2021/12/23 07:38:14;;;;;;;82.45;32.53;;;;;;;14.82;47.94;99679.06;4428495;32;20387;-68
2021/12/23 07:40:40;;;;;;;68.32;30.48;;;;;;;14.81;48.01;99675.44;4429346;32;20033;-69
2021/12/23 07:43:20;;;;;;;75.60;29.33;;;;;;;14.93;47.83;99674.31;4427683;32;20426;-68
2021/12/23 07:45:46;;;;;;;72.47;29.25;;;;;;;14.52;48.67;99680.41;4427314;32;20029;-68
2021/12/23 07:48:12;;;;;;;78.90;30.60;;;;;;;14.50;48.70;99689.37;4430670;32;20120;-68
2021/12/23 07:50:41;;;;;;;69.75;29.87;;;;;;;14.49;48.57;99687.81;4429563;32;20037;-68
2021/12/23 07:53:06;;;;;;;70.37;28.35;;;;;;;14.71;48.76;99684.53;4428928;32;20045;-68
2021/12/23 07:55:32;;;;;;;68.28;29.27;;;;;;;14.63;48.70;99687.00;4427029;32;20099;-68
2021/12/23 07:57:58;;;;;;;69.32;28.00;;;;;;;14.68;48.68;99677.03;4429653;32;20041;-68
2021/12/23 08:00:28;;;;;;;70.85;28.90;;;;;;;14.67;48.73;99683.97;4429135;32;20117;-68
2021/12/23 08:02:55;;;;;;;73.95;29.50;;;;;;;14.53;49.20;99687.59;4430293;32;20076;-68
2021/12/23 08:05:21;;;;;;;66.35;28.60;;;;;;;14.62;48.85;99674.13;4428964;32;20050;-68
2021/12/23 08:07:47;;;;;;;69.00;29.73;;;;;;;14.78;48.28;99661.47;4430748;32;20523;-68
2021/12/23 08:10:14;;;;;;;65.95;28.15;;;;;;;14.95;48.24;99668.16;4431324;32;20109;-68
2021/12/23 08:12:40;;;;;;;70.22;28.77;;;;;;;15.14;47.97;99663.78;4429633;32;20436;-68
2021/12/23 08:15:06;;;;;;;67.12;28.70;;;;;;;15.08;47.93;99665.75;4427210;32;20060;-68
2021/12/23 08:17:33;;;;;;;72.22;29.67;;;;;;;14.77;48.63;99679.75;4417085;32;20099;-68
2021/12/23 08:19:59;;;;;;;69.55;28.40;;;;;;;14.88;48.22;99660.09;4418678;32;20037;-68
2021/12/23 08:22:24;;;;;;;69.97;28.83;;;;;;;15.02;48.18;99674.19;4417214;32;20498;-68
2021/12/23 08:24:50;;;;;;;72.20;30.40;;;;;;;15.01;48.13;99678.31;4419017;32;20147;-68
2021/12/23 08:27:16;;;;;;;73.22;30.10;;;;;;;15.07;47.89;99667.81;4417584;32;20227;-69
2021/12/23 08:29:41;;;;;;;69.60;28.30;;;;;;;15.21;47.90;99657.69;4418302;32;20117;-69
2021/12/23 08:32:07;;;;;;;65.00;28.00;;;;;;;15.37;47.62;99666.44;4418047;32;20391;-69
2021/12/23 08:34:35;;;;;;;69.15;29.05;;;;;;;15.42;47.48;99670.59;4418691;32;20134;-69
2021/12/23 08:37:00;;;;;;;61.10;27.30;;;;;;;15.56;47.17;99667.69;4422513;32;20021;-69
2021/12/23 08:39:26;;;;;;;66.65;28.60;;;;;;;15.75;46.84;99668.16;4418583;32;20263;-69
2021/12/23 08:41:52;;;;;;;63.97;27.92;;;;;;;15.99;46.26;99671.50;4419313;32;20065;-69
2021/12/23 08:44:18;;;;;;;67.97;29.40;;;;;;;15.78;46.71;99673.59;4420981;32;20041;-69
2021/12/23 08:46:43;;;;;;;67.32;27.90;;;;;;;15.85;46.88;99666.69;4419042;32;20495;-69
2021/12/23 08:49:10;;;;;;;65.28;27.17;;;;;;;15.90;46.77;99651.81;4420917;32;20034;-69
2021/12/23 08:51:37;;;;;;;67.70;28.42;;;;;;;16.02;46.88;99664.03;4419863;32;20081;-69
2021/12/23 08:54:04;;;;;;;74.50;28.58;;;;;;;16.11;46.46;99661.81;4419022;32;20104;-69
2021/12/23 08:56:30;;;;;;;60.80;26.75;;;;;;;16.11;46.72;99649.69;4414516;32;21653;-69
2021/12/23 08:58:56;;;;;;;66.20;27.10;;;;;;;15.62;47.21;99648.66;4420592;32;20334;-68
2021/12/23 09:01:23;;;;;;;68.78;28.35;;;;;;;15.65;47.37;99633.50;4418460;32;20034;-69
2021/12/23 09:03:49;;;;;;;64.53;28.38;;;;;;;15.77;47.25;99634.38;4416780;32;20478;-68
2021/12/23 09:06:15;;;;;;;63.17;26.45;;;;;;;15.69;47.22;99631.22;4420004;32;20126;-68
2021/12/23 09:08:40;;;;;;;64.95;27.52;;;;;;;15.78;47.62;99635.94;4417509;32;20033;-69
2021/12/23 09:11:06;;;;;;;65.95;28.10;;;;;;;15.75;47.21;99640.59;4416005;32;20077;-69
2021/12/23 09:13:32;;;;;;;60.33;28.00;;;;;;;15.74;47.61;99629.72;4415461;32;20101;-69
2021/12/23 09:15:58;;;;;;;64.35;27.40;;;;;;;15.68;47.76;99629.66;4418081;32;20060;-69
2021/12/23 09:18:25;;;;;;;62.08;26.40;;;;;;;15.51;48.76;99625.88;4416982;32;20056;-68
2021/12/23 09:20:53;;;;;;;61.47;25.50;;;;;;;16.06;47.59;99617.12;4416369;32;20434;-68
2021/12/23 09:23:20;;;;;;;64.10;27.52;;;;;;;16.13;47.18;99613.81;4415041;32;20990;-68
2021/12/23 09:25:47;;;;;;;56.53;26.70;;;;;;;16.01;47.50;99619.91;4418125;32;20081;-68
2021/12/23 09:33:51;;;;;;;62.45;25.42;;;;;;;15.92;47.55;99604.63;4438661;32;20024;-68
2021/12/23 09:36:17;;;;;;;64.62;26.98;;;;;;;16.12;46.86;99603.75;4453602;32;20105;-68
2021/12/23 09:38:45;;;;;;;59.50;25.55;;;;;;;15.98;47.29;99590.47;4451673;32;20080;-68
2021/12/23 09:41:16;;;;;;;61.37;26.85;;;;;;;16.57;46.38;99596.37;4451211;32;20358;-68
2021/12/23 09:43:42;;;;;;;61.47;27.08;;;;;;;16.72;46.11;99585.62;4451708;32;20468;-69
2021/12/23 09:46:12;;;;;;;61.90;25.60;;;;;;;16.67;46.13;99589.19;4451533;32;20468;-68
2021/12/23 09:48:42;;;;;;;65.78;26.50;;;;;;;16.60;46.42;99587.59;4436447;32;20099;-68
2021/12/23 09:51:09;;;;;;;55.25;25.90;;;;;;;16.59;46.50;99594.56;4450035;32;20436;-68
2021/12/23 09:53:39;;;;;;;61.30;26.48;;;;;;;17.03;45.43;99594.03;4451474;32;20029;-68
2021/12/23 09:56:06;;;;;;;60.55;25.12;;;;;;;17.11;45.02;99607.25;4453105;32;20245;-68
2021/12/23 09:58:32;;;;;;;57.25;25.62;;;;;;;16.79;45.31;99602.19;4451174;32;20505;-68
2021/12/23 10:00:59;;;;;;;58.15;26.20;;;;;;;16.94;45.58;99603.53;4449804;32;20242;-68
2021/12/23 10:03:27;;;;;;;56.05;25.40;;;;;;;16.90;45.31;99616.44;4453586;32;20029;-69
2021/12/23 10:05:54;;;;;;;58.75;25.10;;;;;;;17.32;44.54;99608.62;4451842;32;20460;-69
2021/12/23 10:08:20;;;;;;;55.33;25.00;;;;;;;17.26;44.98;99610.66;4451020;32;20049;-69
2021/12/23 10:10:59;;;;;;;56.22;25.55;;;;;;;17.33;45.14;99629.28;4452367;32;20398;-69
2021/12/23 10:41:17;;;;;;;60.12;26.48;;;;;;;17.60;45.01;99625.78;3980501;32;15023595;-69
2021/12/23 10:43:47;;;;;;;54.50;25.58;;;;;;;17.59;44.80;99616.50;4430106;32;20119;-69
2021/12/23 10:49:06;;;;;;;52.10;25.45;;;;;;;18.41;44.40;99606.47;3979875;32;15021859;-69
2021/12/23 10:58:00;;;;;;;55.53;24.25;;;;;;;17.98;45.54;99610.06;4000573;31;15018298;-69
2021/12/23 10:58:11;;;;;;;59.42;24.92;;;;;;;17.98;45.54;99610.06;4443369;32;20033;-69
2021/12/23 11:03:05;;;;;;;57.28;24.98;;;;;;;17.84;45.94;99589.09;3982390;32;15022933;-69
2021/12/23 11:05:37;;;;;;;57.60;25.75;;;;;;;17.84;45.94;99589.09;4428915;32;20570;-69
2021/12/23 11:11:06;;;;;;;53.60;25.23;;;;;;;17.50;45.73;99576.13;3982705;32;15024609;-69
2021/12/23 11:27:48;;;;;;;47.22;20.35;;;;;;;17.15;47.80;99541.63;4427220;32;20065;-68
2021/12/23 11:44:06;;;;;;;29.92;15.13;;;;;;;16.84;48.93;99531.16;3981578;32;15022291;-68
2021/12/23 11:46:46;;;;;;;32.38;15.85;;;;;;;16.74;49.62;99527.00;4432184;32;20037;-67
2021/12/23 11:49:13;;;;;;;30.20;14.98;;;;;;;16.94;49.15;99535.34;4428854;32;20034;-68
2021/12/23 11:51:51;;;;;;;29.92;14.75;;;;;;;16.33;50.84;99520.03;4427158;32;20095;-68
2021/12/23 11:54:20;;;;;;;29.40;14.60;;;;;;;16.51;50.04;99518.88;4434166;32;20116;-68
2021/12/23 11:56:52;;;;;;;28.17;14.02;;;;;;;16.56;50.31;99507.53;4427674;32;20628;-68
2021/12/23 11:59:19;;;;;;;28.52;14.57;;;;;;;16.40;51.09;99505.37;4432875;32;20563;-67
2021/12/23 12:01:48;;;;;;;27.13;14.43;;;;;;;16.12;51.64;99512.16;4431745;32;20138;-68
2021/12/23 12:06:58;;;;;;;30.55;15.30;;;;;;;16.43;51.13;99509.25;4002977;31;15018942;-67
2021/12/23 12:09:28;;;;;;;36.70;16.35;;;;;;;16.11;52.02;99502.88;4451118;32;21524;-67
2021/12/23 12:12:11;;;;;;;41.50;17.75;;;;;;;16.05;52.70;99512.63;4452841;32;20148;-68
2021/12/23 12:23:01;;;;;;;36.85;18.45;;;;;;;16.15;51.94;99496.94;3982335;32;15027488;-68
2021/12/23 12:49:24;;;;;;;40.03;18.30;;;;;;;16.90;50.06;99489.34;3985143;32;15044700;-69
2021/12/23 12:51:54;;;;;;;38.67;19.30;;;;;;;16.52;51.15;99484.28;4440144;32;20355;-69
2021/12/23 12:54:31;;;;;;;39.88;18.30;;;;;;;16.90;50.45;99480.03;4442706;32;20086;-69
2021/12/23 12:57:02;;;;;;;41.30;19.45;;;;;;;17.06;50.17;99493.53;4444645;32;20021;-68
2021/12/23 12:59:31;;;;;;;39.72;18.77;;;;;;;17.16;49.67;99487.09;4442903;32;20103;-68
2021/12/23 13:01:58;;;;;;;41.58;19.10;;;;;;;17.46;49.54;99485.34;4442056;32;20073;-68
2021/12/23 13:07:25;;;;;;;37.13;18.98;;;;;;;18.09;48.35;99479.88;3939186;32;15725416;-68
2021/12/23 13:09:57;;;;;;;44.67;20.30;;;;;;;18.09;48.35;99479.88;4408149;32;20069;-68
2021/12/23 13:15:19;;;;;;;42.70;20.17;;;;;;;18.19;48.16;99475.47;3997961;31;15018647;-69
2021/12/23 13:20:43;;;;;;;48.13;21.75;;;;;;;18.30;48.05;99463.28;3976379;32;15021557;-69
2021/12/23 13:25:52;;;;;;;49.90;22.40;;;;;;;18.09;48.73;99462.81;3981208;32;15021852;-70
2021/12/23 13:30:58;;;;;;;47.40;20.60;;;;;;;17.74;49.83;99469.06;3978316;32;15022476;-70
2021/12/23 13:33:24;;;;;;;44.60;20.55;;;;;;;17.74;49.83;99469.06;4426774;32;20090;-69